Santa Barbara, Brazil
Current Conditions -  °F | °C
As of 11:00 PM on Friday 24 Oct 2014 (Local Time) from SBCF Reporting Station
Clear Clear  
Wind Chill: 75°   Ceiling: Unl
Heat Index: 75°   Visibility: 6mi
Dew Point: 57°   Wind: 8mph
Humidity: 53%   Direction: 100°E
Pressure: 30.03"   Gusts: NA
Location:  19.96°S, 43.42°W
Report Text: SBCF 250100Z 10007KT CAVOK 24/14 Q1017
Loading
Personal Weather Stations






























Interactive Weather Map
Tropical Storm Tracking
New forecast layout! Learn more

10-Day Weather Forecast

Advertisements
Track Severe Weather on mobile